createdAt,value
2019-02-16T00:00:00.490Z,10.10
2019-02-16T00:02:33.337Z,10.13
2019-02-16T00:05:04.786Z,10.05
2019-02-16T00:07:35.480Z,10.08
2019-02-16T00:10:06.250Z,10.04
2019-02-16T00:12:37.077Z,10.05
2019-02-16T00:15:08.159Z,10.03
2019-02-16T00:17:38.797Z,10.01
2019-02-16T00:20:09.657Z,10.04
2019-02-16T00:22:40.655Z,10.07
2019-02-16T00:25:11.393Z,10.04
2019-02-16T00:27:42.412Z,10.01
2019-02-16T00:30:14.303Z,10.04
2019-02-16T00:32:45.190Z,9.99
2019-02-16T00:35:15.953Z,9.96
2019-02-16T00:37:46.841Z,9.91
2019-02-16T00:40:17.796Z,9.89
2019-02-16T00:42:48.458Z,9.91
2019-02-16T00:45:19.235Z,9.90
2019-02-16T00:47:49.925Z,9.78
2019-02-16T00:50:20.495Z,9.84
2019-02-16T00:52:51.061Z,9.81
2019-02-16T00:55:22.127Z,9.84
2019-02-16T00:57:52.992Z,9.77
2019-02-16T01:00:24.231Z,9.76
2019-02-16T01:02:55.123Z,9.79
2019-02-16T01:05:26.042Z,9.68
2019-02-16T01:07:56.653Z,9.67
2019-02-16T01:10:27.632Z,9.64
2019-02-16T01:12:58.544Z,9.61
2019-02-16T01:15:29.092Z,9.62
2019-02-16T01:17:59.796Z,9.60
2019-02-16T01:20:30.728Z,9.57
2019-02-16T01:23:01.453Z,9.48
2019-02-16T01:25:32.405Z,9.46
2019-02-16T01:28:03.743Z,9.44
2019-02-16T01:30:34.480Z,9.38
2019-02-16T01:33:05.451Z,9.40
2019-02-16T01:35:36.726Z,9.40
2019-02-16T01:38:07.272Z,9.30
2019-02-16T01:40:38.107Z,9.27
2019-02-16T01:43:08.783Z,9.27
2019-02-16T01:45:39.452Z,9.25
2019-02-16T01:48:10.071Z,9.19
2019-02-16T01:50:40.745Z,9.22
2019-02-16T01:53:11.577Z,9.09
2019-02-16T01:55:42.187Z,9.13
2019-02-16T01:58:13.023Z,9.12
2019-02-16T02:00:43.652Z,9.00
2019-02-16T02:03:14.532Z,9.00
2019-02-16T02:05:45.250Z,8.96
2019-02-16T02:08:15.828Z,8.92
2019-02-16T02:10:46.478Z,8.94
2019-02-16T02:13:16.983Z,8.88
2019-02-16T02:15:47.762Z,8.82
2019-02-16T02:18:18.562Z,8.84
2019-02-16T02:20:49.356Z,8.84
2019-02-16T02:23:20.436Z,8.77
2019-02-16T02:25:51.636Z,8.80
2019-02-16T02:28:22.414Z,8.73
2019-02-16T02:30:53.219Z,8.83
2019-02-16T02:33:23.814Z,8.78
2019-02-16T02:35:54.310Z,8.75
2019-02-16T02:38:24.829Z,8.69
2019-02-16T02:40:55.639Z,8.66
2019-02-16T02:43:26.530Z,8.66
2019-02-16T02:45:57.097Z,8.67
2019-02-16T02:48:27.668Z,8.68
2019-02-16T02:50:58.152Z,8.66
2019-02-16T02:53:31.525Z,8.75
2019-02-16T02:56:01.153Z,8.72
2019-02-16T02:58:31.941Z,8.69
2019-02-16T03:01:02.712Z,8.72
2019-02-16T03:03:33.259Z,8.69
2019-02-16T03:06:04.078Z,8.79
2019-02-16T03:08:34.592Z,8.69
2019-02-16T03:11:05.140Z,8.72
2019-02-16T03:13:35.678Z,8.68
2019-02-16T03:16:06.493Z,8.69
2019-02-16T03:18:37.081Z,8.65
2019-02-16T03:21:08.002Z,8.58
2019-02-16T03:23:38.639Z,8.60
2019-02-16T03:26:30.170Z,8.56
2019-02-16T03:29:10.903Z,8.51
2019-02-16T03:32:37.986Z,8.47
2019-02-16T03:36:08.228Z,8.44
2019-02-16T03:39:18.049Z,8.35
2019-02-16T03:41:48.870Z,8.34
2019-02-16T03:44:19.460Z,8.26
2019-02-16T03:46:50.079Z,8.26
2019-02-16T03:49:20.830Z,8.23
2019-02-16T03:51:51.348Z,8.21
2019-02-16T03:54:24.713Z,8.17
2019-02-16T03:56:55.222Z,8.17
2019-02-16T03:59:25.727Z,8.15
2019-02-16T04:01:56.326Z,8.13
2019-02-16T04:04:27.067Z,8.15
2019-02-16T04:06:57.586Z,8.08
2019-02-16T04:09:28.446Z,8.07
2019-02-16T04:11:59.235Z,8.06
2019-02-16T04:14:30.642Z,8.02
2019-02-16T04:17:01.515Z,8.01
2019-02-16T04:19:32.257Z,8.03
2019-02-16T04:22:03.346Z,7.96
2019-02-16T04:24:34.182Z,7.93
2019-02-16T04:27:05.416Z,7.93
2019-02-16T04:29:35.920Z,7.99
2019-02-16T04:32:06.455Z,7.94
2019-02-16T04:34:36.970Z,7.93
2019-02-16T04:37:08.024Z,7.91
2019-02-16T04:39:39.164Z,7.89
2019-02-16T04:42:09.681Z,7.86
2019-02-16T04:44:40.184Z,7.78
2019-02-16T04:47:10.781Z,7.76
2019-02-16T04:49:41.583Z,7.70
2019-02-16T04:52:12.135Z,7.74
2019-02-16T04:54:42.933Z,7.64
2019-02-16T04:57:13.486Z,7.64
2019-02-16T04:59:44.039Z,7.67
2019-02-16T05:02:14.575Z,7.58
2019-02-16T05:04:45.144Z,7.64
2019-02-16T05:07:16.065Z,7.58
2019-02-16T05:09:46.594Z,7.59
2019-02-16T05:12:17.099Z,7.60
2019-02-16T05:14:47.875Z,7.64
2019-02-16T05:17:18.392Z,7.65
2019-02-16T05:19:49.182Z,7.70
2019-02-16T05:22:19.694Z,7.67
2019-02-16T05:24:50.276Z,7.63
2019-02-16T05:27:21.115Z,7.54
2019-02-16T05:29:51.641Z,7.59
2019-02-16T05:32:22.173Z,7.63
2019-02-16T05:34:52.937Z,7.49
2019-02-16T05:37:23.477Z,7.42
2019-02-16T05:39:54.288Z,7.58
2019-02-16T05:42:24.801Z,7.53
2019-02-16T05:44:55.304Z,7.51
2019-02-16T05:47:26.027Z,7.46
2019-02-16T05:49:56.494Z,7.49
2019-02-16T05:52:27.013Z,7.56
2019-02-16T05:54:57.551Z,7.60
2019-02-16T05:57:28.101Z,7.58
2019-02-16T05:59:58.595Z,7.54
2019-02-16T06:02:29.427Z,7.59
2019-02-16T06:05:00.342Z,7.64
2019-02-16T06:07:32.467Z,7.62
2019-02-16T06:10:03.265Z,7.66
2019-02-16T06:12:34.080Z,7.65
2019-02-16T06:15:04.582Z,7.47
2019-02-16T06:17:35.182Z,7.47
2019-02-16T06:20:06.151Z,7.47
2019-02-16T06:22:36.965Z,7.51
2019-02-16T06:25:07.728Z,7.54
2019-02-16T06:27:38.731Z,7.48
2019-02-16T06:30:10.452Z,7.45
2019-02-16T06:32:41.311Z,7.37
2019-02-16T06:35:36.511Z,7.35
2019-02-16T06:38:07.641Z,7.43
2019-02-16T06:40:38.420Z,7.43
2019-02-16T06:43:09.474Z,7.39
2019-02-16T06:45:40.039Z,7.30
2019-02-16T06:48:10.863Z,7.35
2019-02-16T06:50:41.506Z,7.27
2019-02-16T06:53:13.570Z,7.28
2019-02-16T06:55:57.620Z,7.33
2019-02-16T06:58:28.176Z,7.27
2019-02-16T07:00:59.093Z,7.39
2019-02-16T07:03:29.896Z,7.30
2019-02-16T07:06:00.434Z,7.37
2019-02-16T07:08:31.279Z,7.36
2019-02-16T07:11:02.645Z,7.36
2019-02-16T07:13:33.237Z,7.39
2019-02-16T07:16:40.461Z,7.47
2019-02-16T07:19:23.781Z,7.57
2019-02-16T07:21:54.294Z,7.80
2019-02-16T07:24:25.335Z,7.91
2019-02-16T07:26:56.179Z,8.21
2019-02-16T07:29:26.754Z,8.34
2019-02-16T07:31:57.556Z,8.58
2019-02-16T07:34:28.199Z,8.75
2019-02-16T07:36:58.708Z,9.07
2019-02-16T07:39:29.192Z,9.43
2019-02-16T07:41:59.738Z,9.44
2019-02-16T07:44:58.003Z,9.65
2019-02-16T07:47:36.818Z,9.47
2019-02-16T07:50:21.637Z,9.96
2019-02-16T07:53:19.873Z,9.57
2019-02-16T07:56:15.166Z,10.00
2019-02-16T07:58:53.565Z,10.42
2019-02-16T08:01:49.076Z,10.40
2019-02-16T08:04:41.568Z,9.94
2019-02-16T08:07:29.942Z,10.39
2019-02-16T08:10:34.322Z,11.00
2019-02-16T08:13:18.256Z,10.99
2019-02-16T08:15:57.888Z,11.14
2019-02-16T08:18:44.025Z,11.52
2019-02-16T08:21:40.316Z,11.91
2019-02-16T08:24:32.570Z,11.58
2019-02-16T08:27:20.712Z,11.90
2019-02-16T08:30:08.154Z,11.74
2019-02-16T08:33:09.700Z,12.02
2019-02-16T08:36:02.018Z,12.55
2019-02-16T08:38:49.703Z,12.85
2019-02-16T08:41:45.096Z,13.22
2019-02-16T08:44:30.294Z,12.43
2019-02-16T08:47:19.709Z,12.95
2019-02-16T08:50:05.792Z,13.44
2019-02-16T08:52:53.741Z,13.14
2019-02-16T08:55:52.331Z,12.90
2019-02-16T08:58:56.849Z,13.31
2019-02-16T09:01:35.485Z,13.19
2019-02-16T09:04:42.866Z,13.12
2019-02-16T09:07:21.436Z,13.72
2019-02-16T09:10:06.850Z,14.30
2019-02-16T09:12:54.512Z,13.60
2019-02-16T09:15:44.074Z,13.82
2019-02-16T09:18:29.571Z,13.83
2019-02-16T09:21:17.212Z,14.11
2019-02-16T09:23:59.160Z,14.28
2019-02-16T09:26:44.074Z,14.84
2019-02-16T09:29:26.850Z,15.39
2019-02-16T09:32:20.379Z,15.12
2019-02-16T09:35:21.566Z,15.10
2019-02-16T09:38:09.601Z,15.22
2019-02-16T09:40:59.648Z,15.25
2019-02-16T09:43:51.794Z,15.34
2019-02-16T09:46:40.170Z,15.99
2019-02-16T09:49:22.162Z,15.55
2019-02-16T09:52:21.519Z,15.45
2019-02-16T09:55:19.939Z,16.19
2019-02-16T09:58:09.340Z,14.63
2019-02-16T10:00:58.744Z,14.91
2019-02-16T10:03:47.174Z,15.74
2019-02-16T10:06:41.727Z,15.46
2019-02-16T10:09:41.032Z,16.32
2019-02-16T10:12:45.645Z,15.30
2019-02-16T10:15:33.479Z,16.01
2019-02-16T10:18:31.529Z,16.16
2019-02-16T10:21:27.138Z,16.88
2019-02-16T10:24:18.176Z,17.55
2019-02-16T10:27:07.736Z,17.86
2019-02-16T10:30:00.044Z,18.52
2019-02-16T10:32:52.446Z,18.73
2019-02-16T10:35:48.046Z,19.13
2019-02-16T10:38:56.582Z,18.71
2019-02-16T10:41:44.746Z,18.81
2019-02-16T10:44:34.573Z,19.07
2019-02-16T10:47:26.898Z,18.98
2019-02-16T10:50:07.743Z,18.97
2019-02-16T10:53:00.028Z,19.27
2019-02-16T10:56:01.486Z,19.52
2019-02-16T10:58:51.063Z,19.16
2019-02-16T11:01:49.221Z,19.92
2019-02-16T11:04:38.289Z,20.25
2019-02-16T11:07:17.381Z,20.06
2019-02-16T11:09:52.867Z,19.61
2019-02-16T11:12:38.218Z,20.27
2019-02-16T11:15:30.610Z,20.55
2019-02-16T11:18:34.773Z,20.06
2019-02-16T11:21:22.822Z,20.69
2019-02-16T11:24:03.701Z,20.16
2019-02-16T11:26:40.418Z,20.56
2019-02-16T11:29:28.475Z,20.49
2019-02-16T11:32:17.563Z,20.74
2019-02-16T11:34:54.005Z,20.91
2019-02-16T11:37:30.784Z,20.99
2019-02-16T11:40:38.223Z,21.01
2019-02-16T11:43:30.533Z,20.55
2019-02-16T11:46:14.637Z,20.65
2019-02-16T11:49:03.179Z,20.92
2019-02-16T11:51:43.902Z,20.87
2019-02-16T11:54:32.133Z,20.82
2019-02-16T11:57:22.039Z,20.94
2019-02-16T12:00:11.755Z,20.98
2019-02-16T12:03:03.417Z,21.00
2019-02-16T12:05:45.135Z,21.24
2019-02-16T12:08:26.880Z,21.10
2019-02-16T12:11:15.072Z,21.43
2019-02-16T12:14:03.997Z,21.42
2019-02-16T12:17:02.778Z,21.04
2019-02-16T12:19:55.222Z,20.20
2019-02-16T12:22:35.633Z,20.26
2019-02-16T12:25:17.327Z,20.65
2019-02-16T12:27:58.858Z,20.95
2019-02-16T12:30:51.540Z,20.56
2019-02-16T12:33:31.360Z,20.43
2019-02-16T12:36:21.821Z,20.85
2019-02-16T12:39:09.683Z,20.95
2019-02-16T12:41:58.154Z,20.67
2019-02-16T12:44:44.535Z,21.17
2019-02-16T12:47:32.724Z,20.95
2019-02-16T12:50:22.170Z,21.32
2019-02-16T12:53:10.475Z,21.13
2019-02-16T12:56:02.440Z,20.75
2019-02-16T12:59:01.174Z,21.26
2019-02-16T13:01:49.848Z,21.29
2019-02-16T13:04:38.278Z,21.58
2019-02-16T13:07:21.361Z,21.40
2019-02-16T13:10:09.553Z,21.37
2019-02-16T13:12:57.551Z,21.48
2019-02-16T13:15:49.958Z,21.11
2019-02-16T13:18:43.665Z,20.95
2019-02-16T13:21:31.990Z,21.29
2019-02-16T13:24:33.528Z,20.75
2019-02-16T13:27:32.059Z,20.94
2019-02-16T13:30:13.926Z,21.07
2019-02-16T13:32:56.094Z,20.96
2019-02-16T13:35:54.584Z,20.92
2019-02-16T13:38:46.951Z,20.84
2019-02-16T13:41:29.593Z,20.80
2019-02-16T13:44:25.126Z,20.36
2019-02-16T13:47:17.682Z,20.36
2019-02-16T13:50:09.860Z,19.95
2019-02-16T13:52:46.044Z,19.60
2019-02-16T13:55:40.517Z,19.45
2019-02-16T13:58:29.957Z,19.80
2019-02-16T14:01:11.539Z,19.49
2019-02-16T14:04:02.296Z,19.72
2019-02-16T14:06:47.335Z,19.63
2019-02-16T14:09:31.040Z,19.71
2019-02-16T14:12:27.054Z,19.47
2019-02-16T14:15:13.566Z,19.50
2019-02-16T14:17:47.253Z,19.45
2019-02-16T14:20:18.488Z,19.45
2019-02-16T14:22:49.800Z,19.28
2019-02-16T14:25:25.398Z,19.09
2019-02-16T14:27:56.060Z,19.30
2019-02-16T14:30:29.550Z,19.33
2019-02-16T14:33:00.189Z,18.67
2019-02-16T14:35:30.907Z,18.85
2019-02-16T14:38:13.007Z,18.81
2019-02-16T14:40:43.831Z,18.64
2019-02-16T14:43:14.385Z,18.45
2019-02-16T14:45:45.313Z,18.35
2019-02-16T14:48:16.307Z,18.47
2019-02-16T14:50:47.029Z,18.28
2019-02-16T14:53:18.098Z,18.01
2019-02-16T14:55:53.807Z,17.83
2019-02-16T14:58:21.560Z,17.82
2019-02-16T15:00:52.182Z,17.84
2019-02-16T15:03:23.107Z,17.85
2019-02-16T15:05:54.209Z,17.78
2019-02-16T15:08:25.014Z,17.60
2019-02-16T15:10:55.647Z,17.45
2019-02-16T15:13:26.314Z,17.44
2019-02-16T15:15:57.407Z,17.31
2019-02-16T15:18:28.035Z,17.35
2019-02-16T15:20:59.046Z,17.19
2019-02-16T15:23:29.575Z,17.03
2019-02-16T15:26:01.359Z,16.97
2019-02-16T15:28:32.048Z,16.88
2019-02-16T15:31:02.953Z,16.77
2019-02-16T15:33:33.735Z,16.63
2019-02-16T15:36:04.424Z,16.57
2019-02-16T15:38:35.182Z,16.47
2019-02-16T15:41:06.005Z,16.42
2019-02-16T15:43:36.798Z,16.29
2019-02-16T15:46:07.614Z,16.15
2019-02-16T15:48:38.449Z,16.17
2019-02-16T15:51:08.999Z,16.07
2019-02-16T15:53:40.076Z,16.02
2019-02-16T15:56:11.039Z,16.00
2019-02-16T15:58:41.718Z,15.84
2019-02-16T16:01:12.560Z,15.72
2019-02-16T16:03:45.165Z,15.65
2019-02-16T16:06:15.676Z,15.58
2019-02-16T16:08:59.962Z,15.48
2019-02-16T16:11:37.983Z,15.36
2019-02-16T16:14:17.124Z,15.32
2019-02-16T16:17:06.451Z,15.27
2019-02-16T16:19:52.632Z,15.16
2019-02-16T16:22:45.034Z,15.06
2019-02-16T16:25:28.827Z,14.95
2019-02-16T16:28:24.287Z,14.83
2019-02-16T16:31:13.941Z,14.73
2019-02-16T16:33:56.509Z,14.61
2019-02-16T16:36:45.377Z,14.47
2019-02-16T16:39:25.180Z,14.35
2019-02-16T16:42:09.715Z,14.27
2019-02-16T16:45:13.799Z,14.19
2019-02-16T16:47:57.293Z,14.22
2019-02-16T16:50:49.457Z,14.10
2019-02-16T16:53:47.990Z,14.02
2019-02-16T16:56:43.111Z,13.91
2019-02-16T16:59:36.077Z,13.93
2019-02-16T17:02:34.006Z,13.84
2019-02-16T17:05:23.845Z,13.79
2019-02-16T17:08:04.996Z,13.73
2019-02-16T17:10:57.851Z,13.68
2019-02-16T17:13:47.323Z,13.60
2019-02-16T17:16:28.720Z,13.54
2019-02-16T17:19:22.198Z,13.42
2019-02-16T17:22:00.957Z,13.40
2019-02-16T17:24:50.349Z,13.44
2019-02-16T17:27:33.581Z,13.48
2019-02-16T17:30:24.117Z,13.43
2019-02-16T17:33:09.896Z,13.39
2019-02-16T17:36:03.571Z,13.35
2019-02-16T17:38:58.995Z,13.34
2019-02-16T17:41:44.981Z,13.32
2019-02-16T17:44:49.260Z,13.28
2019-02-16T17:47:41.815Z,13.30
2019-02-16T17:50:19.313Z,13.26
2019-02-16T17:53:17.556Z,13.16
2019-02-16T17:56:13.043Z,13.20
2019-02-16T17:58:55.280Z,13.20
2019-02-16T18:01:43.562Z,13.23
2019-02-16T18:04:33.752Z,13.12
2019-02-16T18:07:17.638Z,12.99
2019-02-16T18:10:22.643Z,12.87
2019-02-16T18:13:01.383Z,12.73
2019-02-16T18:15:47.432Z,12.55
2019-02-16T18:18:54.605Z,12.45
2019-02-16T18:21:49.960Z,12.27
2019-02-16T18:24:36.595Z,12.17
2019-02-16T18:27:38.565Z,12.05
2019-02-16T18:30:28.401Z,11.97
2019-02-16T18:33:26.746Z,11.84
2019-02-16T18:36:07.468Z,11.74
2019-02-16T18:38:43.516Z,11.65
2019-02-16T18:41:27.371Z,11.60
2019-02-16T18:44:22.916Z,11.53
2019-02-16T18:47:20.931Z,11.45
2019-02-16T18:50:05.094Z,11.39
2019-02-16T18:53:04.175Z,11.32
2019-02-16T18:55:43.981Z,11.27
2019-02-16T18:58:30.171Z,11.20
2019-02-16T19:01:18.139Z,11.17
2019-02-16T19:04:19.505Z,11.11
2019-02-16T19:07:08.920Z,11.05
2019-02-16T19:09:52.621Z,10.98
2019-02-16T19:12:54.138Z,10.93
2019-02-16T19:15:49.592Z,10.86
2019-02-16T19:18:35.199Z,10.79
2019-02-16T19:21:15.881Z,10.75
2019-02-16T19:23:51.327Z,10.77
2019-02-16T19:26:37.190Z,10.70
2019-02-16T19:29:31.818Z,10.67
2019-02-16T19:32:25.637Z,10.61
2019-02-16T19:35:21.000Z,10.73
2019-02-16T19:38:06.900Z,10.83
2019-02-16T19:41:05.001Z,10.93
2019-02-16T19:44:00.555Z,11.05
2019-02-16T19:46:42.654Z,11.24
2019-02-16T19:49:40.780Z,11.32
2019-02-16T19:52:30.451Z,11.35
2019-02-16T19:55:17.133Z,11.35
2019-02-16T19:57:55.474Z,11.27
2019-02-16T20:01:02.157Z,11.27
2019-02-16T20:03:42.543Z,11.32
2019-02-16T20:06:41.089Z,11.24
2019-02-16T20:09:33.284Z,11.12
2019-02-16T20:12:28.531Z,11.03
2019-02-16T20:15:24.350Z,11.00
2019-02-16T20:18:13.089Z,10.99
2019-02-16T20:21:02.577Z,10.96
2019-02-16T20:23:43.873Z,10.86
2019-02-16T20:26:25.091Z,10.96
2019-02-16T20:29:12.977Z,10.95
2019-02-16T20:31:54.113Z,10.99
2019-02-16T20:34:38.363Z,11.02
2019-02-16T20:37:28.264Z,11.03
2019-02-16T20:40:23.941Z,10.96
2019-02-16T20:42:59.331Z,10.90
2019-02-16T20:45:36.383Z,10.89
2019-02-16T20:48:17.370Z,10.89
2019-02-16T20:51:01.462Z,10.85
2019-02-16T20:53:41.098Z,10.83
2019-02-16T20:56:37.155Z,10.84
2019-02-16T20:59:27.369Z,10.73
2019-02-16T21:02:16.094Z,10.70
2019-02-16T21:05:17.305Z,10.71
2019-02-16T21:08:10.333Z,10.59
2019-02-16T21:11:02.386Z,10.58
2019-02-16T21:13:52.387Z,10.50
2019-02-16T21:16:45.530Z,10.50
2019-02-16T21:19:39.191Z,10.41
2019-02-16T21:22:31.575Z,10.33
2019-02-16T21:25:26.719Z,10.28
2019-02-16T21:28:08.358Z,10.24
2019-02-16T21:31:10.630Z,10.30
2019-02-16T21:34:13.627Z,10.20
2019-02-16T21:37:04.696Z,10.20
2019-02-16T21:39:42.182Z,10.16
2019-02-16T21:42:36.777Z,10.10
2019-02-16T21:45:33.768Z,10.06
2019-02-16T21:48:31.957Z,9.98
2019-02-16T21:51:12.585Z,9.86
2019-02-16T21:54:00.743Z,9.81
2019-02-16T21:56:43.737Z,9.76
2019-02-16T21:59:32.673Z,9.71
2019-02-16T22:02:27.961Z,9.69
2019-02-16T22:05:27.296Z,9.64
2019-02-16T22:08:13.934Z,9.73
2019-02-16T22:11:02.356Z,9.65
2019-02-16T22:13:34.231Z,9.60
2019-02-16T22:16:07.646Z,9.59
2019-02-16T22:18:39.078Z,9.57
2019-02-16T22:21:11.759Z,9.56
2019-02-16T22:23:42.675Z,9.53
2019-02-16T22:26:13.736Z,9.51
2019-02-16T22:28:44.753Z,9.50
2019-02-16T22:31:17.926Z,9.50
2019-02-16T22:33:48.721Z,9.50
2019-02-16T22:36:19.808Z,9.49
2019-02-16T22:38:50.532Z,9.50
2019-02-16T22:41:21.424Z,9.51
2019-02-16T22:43:52.261Z,9.44
2019-02-16T22:46:24.023Z,9.43
2019-02-16T22:48:55.405Z,9.44
2019-02-16T22:51:26.082Z,9.43
2019-02-16T22:53:57.241Z,9.39
2019-02-16T22:56:28.360Z,9.40
2019-02-16T22:58:59.473Z,9.45
2019-02-16T23:01:31.005Z,9.41
2019-02-16T23:04:02.278Z,9.43
2019-02-16T23:06:35.346Z,9.47
2019-02-16T23:09:12.050Z,9.48
2019-02-16T23:11:43.445Z,9.43
2019-02-16T23:14:14.490Z,9.38
